CheckWX is a tool to help pilots better visualize weather data.  It is not intended as a substitute for an official pre-flight weather briefing.

07:00:06 UTC

LQBK TAF
Banja Luka International Airport
Banja Luka, Bosnia and Herzegovina
TAF LQBK 210500Z 2106/2206 VRB02KT CAVOK TX21/2113Z TN04/2204Z PROB40 TEMPO 2111/2116 09010KT

Sep-21@
06:00 UTC

Sep-21 @ 06:00 UTC

Sep-22@
06:00 UTC

Sep-22 @ 06:00 UTC

TAF LQBK 210500Z 2106/2206 VRB02KT CAVOK TX21/2113Z TN04/2204Z
Wind
  • Variable at 2 KTS
Cloud Levels
  • No significant clouds

Sep-21@
11:00 UTC

Sep-21 @ 11:00 UTC

Sep-21@
16:00 UTC

Sep-21 @ 16:00 UTC

PROB40 TEMPO 2111/2116 09010KT

Temporary - 40% Likelihood

Temporary - 40% Likelihood during this time.

Wind
  • 090° at 10 KTS